Hatgal, Mongolia
Current Conditions -  °F | °C
As of 8:30 AM on Sunday 26 Oct 2014 (Local Time) from UIII Reporting Station
Clear Clear  
Wind Chill: 20°   Ceiling: Unl
Heat Index: 28°   Visibility: 6mi
Dew Point: 16°   Wind: 9mph
Humidity: 59%   Direction: 100°E
Pressure: 30.12"   Gusts: NA
Location:  50.45°N, 100.15°E
Report Text: UIII 260030Z 10004MPS CAVOK M02/M09 Q1020 NOSIG RMK QFE722/096312920260
Loading
Personal Weather Stations






























Interactive Weather Map
Tropical Storm Tracking
New forecast layout! Learn more

10-Day Weather Forecast

Advertisements
Track Severe Weather on mobile